Time;durP1;ratioP1;P1;durP2;ratioP2;P2;SDS_P1;SDS_P2;PMS_P1;PMS_P2;Temp;Humidity;BMP_temperature;BMP_pressure;BME280_temperature;BME280_humidity;BME280_pressure;Samples;Min_cycle;Max_cycle;Signal;HPM_P1;HPM_P2
2021/11/05 00:01:19;;;;;;;3.58;2.28;;;9.80;99.90;;;;;;5069184;28;20036;-61
2021/11/05 00:04:05;;;;;;;3.45;2.00;;;9.80;99.90;;;;;;5061328;28;20079;-61
2021/11/05 00:06:51;;;;;;;3.78;1.83;;;9.80;99.90;;;;;;5071357;28;20082;-60
2021/11/05 00:09:37;;;;;;;4.25;2.38;;;9.80;99.90;;;;;;5063362;28;20045;-61
2021/11/05 00:12:23;;;;;;;4.18;2.00;;;9.80;99.90;;;;;;5050243;28;20485;-60
2021/11/05 00:15:09;;;;;;;4.30;2.13;;;9.70;99.90;;;;;;5050214;28;20057;-60
2021/11/05 00:17:55;;;;;;;3.60;2.10;;;9.70;99.90;;;;;;5051421;28;20115;-60
2021/11/05 00:20:41;;;;;;;2.78;1.70;;;9.80;99.90;;;;;;5060609;28;20134;-60
2021/11/05 00:23:27;;;;;;;4.13;1.80;;;9.70;99.90;;;;;;5066843;28;20359;-60
2021/11/05 00:26:13;;;;;;;2.67;1.77;;;9.70;99.90;;;;;;5066216;28;20474;-60
2021/11/05 00:28:58;;;;;;;3.00;1.90;;;9.60;99.90;;;;;;5067470;28;20060;-60
2021/11/05 00:31:44;;;;;;;2.92;1.67;;;9.60;99.90;;;;;;5049519;28;20499;-61
2021/11/05 00:34:30;;;;;;;2.67;1.50;;;9.60;99.90;;;;;;5053142;28;20029;-61
2021/11/05 00:37:16;;;;;;;2.78;1.77;;;9.60;99.90;;;;;;5050943;28;20623;-61
2021/11/05 00:40:03;;;;;;;1.50;1.30;;;9.60;99.90;;;;;;5050570;28;20024;-61
2021/11/05 00:42:49;;;;;;;2.60;1.52;;;9.60;99.90;;;;;;5050524;28;20029;-61
2021/11/05 00:45:35;;;;;;;2.53;1.85;;;9.50;99.90;;;;;;5070487;28;20036;-61
2021/11/05 00:48:21;;;;;;;4.45;1.70;;;9.50;99.90;;;;;;5067306;28;20032;-61
2021/11/05 00:51:06;;;;;;;3.25;1.80;;;9.50;99.90;;;;;;5056098;28;20027;-60
2021/11/05 00:53:52;;;;;;;3.72;2.38;;;9.50;99.90;;;;;;5062449;28;20064;-61
2021/11/05 00:56:38;;;;;;;4.20;1.58;;;9.50;99.90;;;;;;5049832;28;20392;-61
2021/11/05 00:59:24;;;;;;;2.38;1.30;;;9.50;99.90;;;;;;5048407;28;20107;-61
2021/11/05 01:02:10;;;;;;;1.63;1.08;;;9.50;99.90;;;;;;5054493;28;20025;-61
2021/11/05 01:04:56;;;;;;;4.32;2.00;;;9.50;99.90;;;;;;5062825;28;20040;-60
2021/11/05 01:07:42;;;;;;;2.25;1.30;;;9.50;99.90;;;;;;5056510;28;20036;-60
2021/11/05 01:10:28;;;;;;;2.97;1.58;;;9.50;99.90;;;;;;5057710;28;20055;-60
2021/11/05 01:13:14;;;;;;;2.58;1.63;;;9.50;99.90;;;;;;5049368;28;20405;-60
2021/11/05 01:15:59;;;;;;;3.78;1.70;;;9.50;99.90;;;;;;5050143;28;20108;-61
2021/11/05 01:18:47;;;;;;;2.88;1.80;;;9.50;99.90;;;;;;5050733;28;20484;-61
2021/11/05 01:21:33;;;;;;;2.40;1.40;;;9.50;99.90;;;;;;5053442;28;20295;-61
2021/11/05 01:24:19;;;;;;;3.58;1.58;;;9.50;99.90;;;;;;5054473;28;20037;-61
2021/11/05 01:27:05;;;;;;;2.83;1.30;;;9.50;99.90;;;;;;5052235;28;20029;-61
2021/11/05 01:29:56;;;;;;;1.65;1.30;;;9.60;99.90;;;;;;5053419;28;20420;-61
2021/11/05 01:32:42;;;;;;;2.72;1.30;;;9.60;99.90;;;;;;5053612;28;20041;-60
2021/11/05 01:35:28;;;;;;;1.85;1.38;;;9.60;99.90;;;;;;5053409;28;20033;-61
2021/11/05 01:38:14;;;;;;;1.90;1.30;;;9.60;99.90;;;;;;5054609;28;20115;-60
2021/11/05 01:41:00;;;;;;;4.13;1.40;;;9.60;99.90;;;;;;5065333;28;20091;-61
2021/11/05 01:43:48;;;;;;;2.67;1.52;;;9.60;99.90;;;;;;5054454;28;20029;-60
2021/11/05 01:46:41;;;;;;;2.53;1.33;;;9.60;99.90;;;;;;5053321;28;20029;-60
2021/11/05 01:49:27;;;;;;;2.92;1.67;;;9.60;99.90;;;;;;5052336;28;20404;-61
2021/11/05 01:52:14;;;;;;;3.97;1.77;;;9.60;99.90;;;;;;5067585;28;20554;-61
2021/11/05 01:55:00;;;;;;;2.60;1.73;;;9.60;99.90;;;;;;5061358;28;20057;-61
2021/11/05 01:57:47;;;;;;;3.20;1.70;;;9.60;99.90;;;;;;5071527;28;20020;-61
2021/11/05 02:00:33;;;;;;;2.35;1.60;;;9.60;99.90;;;;;;5070613;28;20056;-62
2021/11/05 02:03:19;;;;;;;4.15;1.60;;;9.60;99.90;;;;;;5067402;28;20029;-61
2021/11/05 02:06:05;;;;;;;2.60;1.67;;;9.70;99.90;;;;;;5052273;28;20018;-60
2021/11/05 02:08:53;;;;;;;4.20;2.17;;;9.70;99.90;;;;;;5053557;28;20503;-60
2021/11/05 02:11:38;;;;;;;3.47;1.92;;;9.60;99.90;;;;;;5052035;28;20083;-61
2021/11/05 02:14:26;;;;;;;3.03;1.73;;;9.60;99.90;;;;;;5063700;28;20037;-61
2021/11/05 02:17:12;;;;;;;3.08;1.70;;;9.60;99.90;;;;;;5071491;28;20020;-61
2021/11/05 02:19:59;;;;;;;3.60;2.00;;;9.60;99.90;;;;;;5061394;28;20078;-61
2021/11/05 02:22:46;;;;;;;3.45;1.77;;;9.70;99.90;;;;;;5073178;28;20032;-62
2021/11/05 02:25:32;;;;;;;3.55;1.60;;;9.70;99.90;;;;;;5057147;28;20514;-60
2021/11/05 02:28:18;;;;;;;3.33;1.70;;;9.70;99.90;;;;;;5053832;28;20056;-60
2021/11/05 02:31:05;;;;;;;3.95;1.73;;;9.70;99.90;;;;;;5068769;28;20033;-60
2021/11/05 02:33:51;;;;;;;2.42;1.55;;;9.60;99.90;;;;;;5069853;28;20039;-61
2021/11/05 02:36:37;;;;;;;2.80;1.67;;;9.60;99.90;;;;;;5051476;28;20024;-61
2021/11/05 02:39:23;;;;;;;2.72;1.60;;;9.60;99.90;;;;;;5050405;28;20064;-61
2021/11/05 02:42:09;;;;;;;2.33;1.48;;;9.70;99.90;;;;;;5054012;28;20651;-61
2021/11/05 02:44:55;;;;;;;2.88;1.70;;;9.60;99.90;;;;;;5083938;28;20020;-61
2021/11/05 02:47:41;;;;;;;4.22;1.90;;;9.70;99.90;;;;;;5054201;28;20036;-61
2021/11/05 02:50:27;;;;;;;3.60;1.85;;;9.70;99.90;;;;;;5051368;28;20035;-61
2021/11/05 02:53:13;;;;;;;4.63;1.90;;;9.70;99.90;;;;;;5072437;28;20042;-60
2021/11/05 02:55:59;;;;;;;3.10;1.85;;;9.70;99.90;;;;;;5065130;28;20504;-60
2021/11/05 02:58:45;;;;;;;3.03;1.88;;;9.70;99.90;;;;;;5069388;28;20570;-60
2021/11/05 03:01:32;;;;;;;3.00;2.03;;;9.70;99.90;;;;;;5054933;28;20035;-61
2021/11/05 03:04:22;;;;;;;2.83;1.90;;;9.70;99.90;;;;;;5065009;28;20094;-60
2021/11/05 03:07:09;;;;;;;3.75;2.25;;;9.70;99.90;;;;;;5058475;28;20515;-61
2021/11/05 03:09:55;;;;;;;4.28;2.13;;;9.70;99.90;;;;;;5063694;28;20058;-61
2021/11/05 03:12:42;;;;;;;4.07;2.42;;;9.70;99.90;;;;;;5072249;28;20032;-61
2021/11/05 03:15:28;;;;;;;3.97;2.10;;;9.80;99.90;;;;;;5069677;28;20537;-61
2021/11/05 03:18:16;;;;;;;3.42;2.50;;;9.80;99.90;;;;;;5067471;28;20521;-61
2021/11/05 03:21:02;;;;;;;3.40;2.20;;;9.70;99.90;;;;;;5050537;28;20033;-61
2021/11/05 03:23:48;;;;;;;6.50;3.10;;;9.80;99.90;;;;;;5056312;28;20044;-61
2021/11/05 03:26:34;;;;;;;3.63;2.20;;;9.80;99.90;;;;;;5066378;28;20048;-61
2021/11/05 03:29:20;;;;;;;5.15;2.40;;;9.80;99.90;;;;;;5069213;28;20488;-61
2021/11/05 03:32:06;;;;;;;4.10;2.55;;;9.80;99.90;;;;;;5050780;28;20025;-61
2021/11/05 03:34:52;;;;;;;4.78;2.42;;;9.80;99.90;;;;;;5056970;28;20060;-61
2021/11/05 03:37:38;;;;;;;5.45;2.90;;;9.90;99.90;;;;;;5070420;28;20033;-61
2021/11/05 03:40:24;;;;;;;3.90;2.40;;;9.90;99.90;;;;;;5061499;28;20029;-61
2021/11/05 03:43:10;;;;;;;5.05;2.65;;;9.90;99.90;;;;;;5050888;28;20032;-61
2021/11/05 03:45:56;;;;;;;4.75;2.50;;;9.90;99.90;;;;;;5051078;28;20083;-61
2021/11/05 03:48:42;;;;;;;4.28;2.55;;;9.90;99.90;;;;;;5050642;28;20079;-61
2021/11/05 03:51:28;;;;;;;4.30;2.85;;;10.00;99.90;;;;;;5068119;28;20025;-61
2021/11/05 03:54:14;;;;;;;4.95;2.60;;;10.00;99.90;;;;;;5050354;28;20049;-60
2021/11/05 03:57:00;;;;;;;3.95;2.35;;;10.00;99.90;;;;;;5060525;28;20029;-61
2021/11/05 03:59:46;;;;;;;3.92;2.65;;;10.00;99.90;;;;;;5064970;28;20029;-60
2021/11/05 04:02:32;;;;;;;4.63;2.53;;;10.10;99.90;;;;;;5068268;28;20036;-61
2021/11/05 04:05:18;;;;;;;4.75;2.83;;;10.10;99.90;;;;;;5058702;28;20031;-61
2021/11/05 04:08:04;;;;;;;4.32;3.38;;;10.10;99.90;;;;;;5068105;28;20446;-60
2021/11/05 04:10:50;;;;;;;5.60;3.33;;;10.10;99.90;;;;;;5049960;28;20032;-61
2021/11/05 04:13:36;;;;;;;4.50;3.17;;;10.10;99.90;;;;;;5049892;28;20116;-60
2021/11/05 04:16:22;;;;;;;4.30;2.75;;;10.10;99.90;;;;;;5068158;28;20035;-61
2021/11/05 04:19:09;;;;;;;4.15;3.00;;;10.10;99.90;;;;;;5049020;28;20031;-61
2021/11/05 04:21:54;;;;;;;4.18;3.30;;;10.10;99.90;;;;;;5048901;28;20036;-61
2021/11/05 04:24:40;;;;;;;4.65;3.42;;;10.10;99.90;;;;;;5052642;28;20109;-61
2021/11/05 04:27:26;;;;;;;4.65;3.17;;;10.10;99.90;;;;;;5054245;28;20025;-61
2021/11/05 04:30:13;;;;;;;4.93;3.70;;;10.10;99.90;;;;;;5055298;28;20082;-61
2021/11/05 04:33:00;;;;;;;5.30;3.70;;;10.10;99.90;;;;;;5049087;28;20029;-61
2021/11/05 04:35:45;;;;;;;6.43;4.22;;;10.10;99.90;;;;;;5061765;28;20028;-61
2021/11/05 04:38:32;;;;;;;5.80;3.85;;;10.10;99.90;;;;;;5069319;28;20086;-61
2021/11/05 04:41:18;;;;;;;5.78;4.00;;;10.10;99.90;;;;;;5051686;28;20477;-61
2021/11/05 04:44:04;;;;;;;8.50;5.80;;;10.10;99.90;;;;;;5051042;28;20051;-61
2021/11/05 04:46:50;;;;;;;6.70;5.07;;;10.10;99.90;;;;;;5050513;28;20040;-61
2021/11/05 04:49:36;;;;;;;6.13;4.68;;;10.10;99.90;;;;;;5051715;28;20424;-61
2021/11/05 04:52:22;;;;;;;6.40;5.00;;;10.20;99.90;;;;;;5062339;28;20021;-61
2021/11/05 04:55:08;;;;;;;7.47;5.50;;;10.20;99.90;;;;;;5050495;28;20049;-61
2021/11/05 04:57:53;;;;;;;7.63;5.07;;;10.20;99.90;;;;;;5065244;28;20036;-61
2021/11/05 05:00:39;;;;;;;8.20;5.63;;;10.20;99.90;;;;;;5062896;28;20029;-60
2021/11/05 05:03:25;;;;;;;8.05;5.65;;;10.20;99.90;;;;;;5054202;28;20482;-61
2021/11/05 05:06:11;;;;;;;9.02;6.20;;;10.20;99.90;;;;;;5056633;28;20564;-61
2021/11/05 05:08:57;;;;;;;9.63;6.60;;;10.20;99.90;;;;;;5055070;28;20045;-61
2021/11/05 05:11:45;;;;;;;8.85;6.45;;;10.20;99.90;;;;;;5069203;28;20083;-61
2021/11/05 05:14:31;;;;;;;10.02;6.80;;;10.20;99.90;;;;;;5070333;28;20028;-61
2021/11/05 05:17:17;;;;;;;10.85;7.45;;;10.20;99.90;;;;;;5054067;28;20431;-61
2021/11/05 05:20:05;;;;;;;10.65;7.57;;;10.20;99.90;;;;;;5053735;28;20106;-61
2021/11/05 05:22:51;;;;;;;12.20;9.07;;;10.20;99.90;;;;;;5054555;28;20513;-61
2021/11/05 05:25:38;;;;;;;10.07;7.45;;;10.20;99.90;;;;;;5059472;28;20035;-61
2021/11/05 05:28:23;;;;;;;13.80;8.05;;;10.20;99.90;;;;;;5061591;28;20110;-62
2021/11/05 05:31:09;;;;;;;13.00;8.57;;;10.20;99.90;;;;;;5059858;28;20040;-61
2021/11/05 05:33:55;;;;;;;12.55;9.25;;;10.20;99.90;;;;;;5072256;28;20028;-62
2021/11/05 05:36:41;;;;;;;13.20;9.13;;;10.20;99.90;;;;;;5066650;28;20068;-61
2021/11/05 05:39:27;;;;;;;11.25;8.43;;;10.30;99.90;;;;;;5072523;28;20104;-61
2021/11/05 05:42:13;;;;;;;13.38;8.48;;;10.30;99.90;;;;;;5055154;28;20310;-61
2021/11/05 05:44:59;;;;;;;14.63;9.32;;;10.30;99.90;;;;;;5059577;28;20032;-61
2021/11/05 05:47:45;;;;;;;13.65;9.57;;;10.30;99.90;;;;;;5092968;28;20035;-61
2021/11/05 05:50:31;;;;;;;14.07;9.68;;;10.30;99.90;;;;;;5074846;28;20512;-61
2021/11/05 05:53:17;;;;;;;14.60;10.27;;;10.30;99.90;;;;;;5053730;28;20040;-61
2021/11/05 05:56:03;;;;;;;13.82;8.73;;;10.30;99.90;;;;;;5054038;28;20037;-61
2021/11/05 05:58:49;;;;;;;12.80;9.45;;;10.30;99.90;;;;;;5052537;28;20120;-61
2021/11/05 06:01:35;;;;;;;12.80;9.07;;;10.30;99.90;;;;;;5062194;28;20032;-61
2021/11/05 06:04:21;;;;;;;16.17;9.93;;;10.30;99.90;;;;;;5053008;28;20433;-61
2021/11/05 06:07:07;;;;;;;14.77;10.60;;;10.20;99.90;;;;;;5052619;28;20036;-61
2021/11/05 06:09:53;;;;;;;16.98;10.50;;;10.30;99.90;;;;;;5051230;28;20515;-61
2021/11/05 06:12:39;;;;;;;13.65;9.48;;;10.30;99.90;;;;;;5052211;28;20033;-61
2021/11/05 06:15:25;;;;;;;15.57;10.55;;;10.30;99.90;;;;;;5053187;28;20033;-61
2021/11/05 06:18:11;;;;;;;15.15;10.52;;;10.30;99.90;;;;;;5052287;28;20122;-61
2021/11/05 06:20:57;;;;;;;16.25;11.40;;;10.40;99.90;;;;;;5056074;28;20112;-61
2021/11/05 06:23:43;;;;;;;16.67;11.27;;;10.30;99.90;;;;;;5051542;28;20037;-61
2021/11/05 06:26:28;;;;;;;15.00;10.40;;;10.30;99.90;;;;;;5071530;28;20029;-61
2021/11/05 06:29:14;;;;;;;16.45;10.95;;;10.30;99.90;;;;;;5066295;28;20120;-61
2021/11/05 06:32:00;;;;;;;17.63;12.23;;;10.30;99.90;;;;;;5052614;28;20025;-62
2021/11/05 06:34:46;;;;;;;17.40;11.82;;;10.30;99.90;;;;;;5058925;28;20127;-61
2021/11/05 06:37:32;;;;;;;15.10;9.60;;;10.30;99.90;;;;;;5051350;28;20053;-60
2021/11/05 06:40:18;;;;;;;16.63;11.25;;;10.30;99.90;;;;;;5061617;28;20119;-60
2021/11/05 06:43:05;;;;;;;16.30;10.68;;;10.30;99.90;;;;;;5072465;28;20016;-61
2021/11/05 06:45:51;;;;;;;15.38;10.48;;;10.30;99.90;;;;;;5063524;28;20068;-61
2021/11/05 06:48:36;;;;;;;15.13;9.93;;;10.30;99.90;;;;;;5064525;28;20033;-61
2021/11/05 06:51:22;;;;;;;15.38;10.20;;;10.30;99.90;;;;;;5063328;28;20032;-61
2021/11/05 06:54:08;;;;;;;16.75;10.48;;;10.30;99.90;;;;;;5050732;28;20061;-61
2021/11/05 06:56:54;;;;;;;15.80;10.35;;;10.30;99.90;;;;;;5052507;28;20471;-61
2021/11/05 06:59:40;;;;;;;14.30;10.13;;;10.40;99.90;;;;;;5054077;28;20009;-61
2021/11/05 07:02:25;;;;;;;15.27;9.88;;;10.40;99.90;;;;;;5052265;28;20114;-61
2021/11/05 07:05:14;;;;;;;15.85;10.43;;;10.40;99.90;;;;;;5051463;28;20029;-61
2021/11/05 07:08:00;;;;;;;15.57;10.95;;;10.40;99.90;;;;;;5065552;28;20071;-61
2021/11/05 07:10:47;;;;;;;13.90;8.82;;;10.40;99.90;;;;;;5069763;28;20028;-61
2021/11/05 07:13:33;;;;;;;13.32;9.30;;;10.40;99.90;;;;;;5056377;28;20116;-61
2021/11/05 07:16:21;;;;;;;14.45;9.55;;;10.40;99.90;;;;;;5054418;28;20036;-62
2021/11/05 07:19:07;;;;;;;18.25;10.68;;;10.40;99.90;;;;;;5055901;28;20512;-62
2021/11/05 07:22:04;;;;;;;17.08;10.10;;;10.40;99.90;;;;;;5057390;28;20036;-62
2021/11/05 07:24:50;;;;;;;13.55;9.57;;;10.40;99.90;;;;;;5059374;28;20026;-62
2021/11/05 07:27:37;;;;;;;14.93;10.20;;;10.40;99.90;;;;;;5055948;28;20028;-63
2021/11/05 07:30:23;;;;;;;16.70;10.23;;;10.50;99.90;;;;;;5049734;28;20055;-63
2021/11/05 07:33:09;;;;;;;14.75;9.27;;;10.50;99.90;;;;;;5050491;28;20039;-62
2021/11/05 07:35:55;;;;;;;14.65;9.02;;;10.60;99.90;;;;;;5059113;28;20039;-63
2021/11/05 07:38:41;;;;;;;13.73;9.15;;;10.60;99.90;;;;;;5050685;28;20033;-62
2021/11/05 07:41:27;;;;;;;13.68;9.18;;;10.60;99.90;;;;;;5056780;28;20028;-62
2021/11/05 07:44:13;;;;;;;16.35;9.63;;;10.60;99.90;;;;;;5050344;28;20075;-63
2021/11/05 07:46:59;;;;;;;13.52;8.77;;;10.60;99.90;;;;;;5055211;28;20502;-62
2021/11/05 07:49:45;;;;;;;16.23;9.93;;;10.60;99.90;;;;;;5057333;28;20036;-62
2021/11/05 07:52:31;;;;;;;15.80;9.88;;;10.60;99.90;;;;;;5051006;28;20412;-63
2021/11/05 07:55:17;;;;;;;14.57;9.20;;;10.60;99.90;;;;;;5059099;28;20170;-63
2021/11/05 07:58:03;;;;;;;14.02;8.65;;;10.70;99.90;;;;;;5051991;28;20037;-63
2021/11/05 08:00:49;;;;;;;16.50;9.73;;;10.70;99.90;;;;;;5050246;28;20537;-63
2021/11/05 08:03:35;;;;;;;14.13;9.45;;;10.70;99.90;;;;;;5048660;28;20496;-63
2021/11/05 08:06:21;;;;;;;15.82;9.02;;;10.70;99.90;;;;;;5050996;28;20485;-62
2021/11/05 08:09:07;;;;;;;14.23;8.45;;;10.80;99.90;;;;;;5049424;28;20447;-62
2021/11/05 08:11:52;;;;;;;13.57;8.75;;;10.80;99.90;;;;;;5051524;28;20036;-63
2021/11/05 08:14:39;;;;;;;15.00;8.40;;;10.90;99.90;;;;;;5052644;28;20059;-62
2021/11/05 08:17:25;;;;;;;12.10;8.32;;;10.90;99.90;;;;;;5049304;28;20524;-63
2021/11/05 08:20:12;;;;;;;17.23;8.73;;;10.90;99.90;;;;;;5049697;28;20095;-64
2021/11/05 08:22:58;;;;;;;15.75;8.77;;;10.90;99.90;;;;;;5050285;28;20029;-63
2021/11/05 08:25:47;;;;;;;13.00;7.65;;;10.90;99.90;;;;;;5055874;28;20033;-63
2021/11/05 08:28:34;;;;;;;12.10;8.75;;;11.00;99.90;;;;;;5057461;28;20140;-63
2021/11/05 08:31:20;;;;;;;12.73;8.35;;;11.00;99.90;;;;;;5049462;28;20049;-63
2021/11/05 08:34:07;;;;;;;13.23;7.70;;;11.10;99.90;;;;;;5047943;28;20036;-63
2021/11/05 08:36:53;;;;;;;11.07;7.85;;;11.10;99.90;;;;;;5049513;28;20132;-63
2021/11/05 08:39:39;;;;;;;16.85;9.48;;;11.10;99.90;;;;;;5049524;28;20463;-63
2021/11/05 08:42:25;;;;;;;12.85;8.18;;;11.00;99.90;;;;;;5054703;28;20107;-63
2021/11/05 08:45:12;;;;;;;16.20;9.13;;;11.10;99.90;;;;;;5060372;28;20037;-64
2021/11/05 08:47:57;;;;;;;12.88;8.18;;;11.10;99.90;;;;;;5053008;28;20453;-63
2021/11/05 08:50:43;;;;;;;15.68;10.40;;;11.10;99.90;;;;;;5055783;28;20040;-64
2021/11/05 08:53:29;;;;;;;11.77;7.85;;;11.20;99.90;;;;;;5070352;28;20036;-63
2021/11/05 08:56:16;;;;;;;12.73;8.32;;;11.20;99.90;;;;;;5067571;28;20025;-63
2021/11/05 08:59:02;;;;;;;13.45;9.30;;;11.20;99.90;;;;;;5069755;28;20024;-63
2021/11/05 09:01:48;;;;;;;14.43;8.60;;;11.20;99.90;;;;;;5051908;28;20029;-64
2021/11/05 09:04:34;;;;;;;14.73;9.05;;;11.20;99.90;;;;;;5066400;28;20035;-63
2021/11/05 09:07:20;;;;;;;17.15;8.05;;;11.20;99.80;;;;;;5053002;28;20091;-63
2021/11/05 09:10:09;;;;;;;14.00;8.77;;;11.20;99.80;;;;;;5051013;28;20039;-61
2021/11/05 09:12:54;;;;;;;13.32;7.97;;;11.20;99.80;;;;;;5050229;28;20028;-63
2021/11/05 09:15:41;;;;;;;12.85;8.07;;;11.20;99.70;;;;;;5048292;28;20021;-64
2021/11/05 09:18:27;;;;;;;12.20;8.48;;;11.30;99.70;;;;;;5049994;28;20401;-64
2021/11/05 09:21:13;;;;;;;11.20;7.10;;;11.30;99.60;;;;;;5049798;28;20037;-64
2021/11/05 09:24:00;;;;;;;13.77;8.38;;;11.30;99.50;;;;;;5049749;28;20039;-64
2021/11/05 09:26:46;;;;;;;12.60;7.03;;;11.30;99.40;;;;;;5050052;28;20028;-64
2021/11/05 09:29:32;;;;;;;15.80;6.88;;;11.30;99.50;;;;;;5053735;28;20527;-64
2021/11/05 09:32:18;;;;;;;11.18;7.40;;;11.40;99.40;;;;;;5049373;28;20381;-64
2021/11/05 09:35:06;;;;;;;10.38;6.88;;;11.40;99.20;;;;;;5053047;28;20056;-64
2021/11/05 09:37:54;;;;;;;11.20;6.40;;;11.40;99.00;;;;;;5048154;28;20481;-65
2021/11/05 09:40:40;;;;;;;11.20;6.72;;;11.40;99.00;;;;;;5053930;28;20121;-65
2021/11/05 09:43:26;;;;;;;10.63;6.10;;;11.50;99.10;;;;;;5072705;28;20029;-64
2021/11/05 09:46:12;;;;;;;13.60;7.10;;;11.40;98.70;;;;;;5052850;28;20458;-64
2021/11/05 09:48:58;;;;;;;11.15;5.82;;;11.40;98.80;;;;;;5055963;28;20055;-63
2021/11/05 09:51:44;;;;;;;10.45;6.90;;;11.40;98.50;;;;;;5063556;28;20122;-64
2021/11/05 09:54:10;;;;;;;10.27;6.15;;;11.40;98.70;;;;;;5060595;28;20133;-64
2021/11/05 09:56:35;;;;;;;9.98;6.57;;;11.50;98.70;;;;;;5060674;28;20374;-64
2021/11/05 09:59:01;;;;;;;11.30;6.97;;;11.50;98.80;;;;;;5053508;28;20036;-64
2021/11/05 10:01:28;;;;;;;11.00;6.70;;;11.50;98.70;;;;;;5067617;28;20055;-63
2021/11/05 10:03:53;;;;;;;13.63;7.70;;;11.60;98.70;;;;;;5072481;28;20017;-64
2021/11/05 10:06:22;;;;;;;13.73;7.25;;;11.60;98.60;;;;;;5055464;28;20112;-65
2021/11/05 10:08:53;;;;;;;15.00;6.80;;;11.60;98.60;;;;;;5060256;28;20086;-65
2021/11/05 10:11:24;;;;;;;12.32;7.30;;;11.70;98.60;;;;;;5059685;28;20057;-64
2021/11/05 10:13:51;;;;;;;12.88;6.88;;;11.70;98.60;;;;;;5054195;28;20032;-65
2021/11/05 10:16:19;;;;;;;14.40;7.95;;;11.70;98.50;;;;;;5052109;28;20029;-65
2021/11/05 10:19:06;;;;;;;15.45;7.93;;;11.70;98.50;;;;;;5055853;28;20108;-65
2021/11/05 10:21:50;;;;;;;11.53;6.93;;;11.70;98.40;;;;;;5052698;28;20075;-64
2021/11/05 10:24:19;;;;;;;12.13;7.28;;;11.70;98.30;;;;;;5056196;28;20303;-63
2021/11/05 10:26:47;;;;;;;12.57;7.13;;;11.70;98.20;;;;;;5063964;28;20029;-63
2021/11/05 10:29:41;;;;;;;11.82;6.95;;;11.70;98.40;;;;;;5052115;28;20025;-64
2021/11/05 10:32:08;;;;;;;10.38;6.68;;;11.80;98.40;;;;;;5039073;28;20025;-63
2021/11/05 10:34:49;;;;;;;11.90;6.13;;;11.60;97.80;;;;;;5056990;28;20037;-64
2021/11/05 10:37:26;;;;;;;7.70;5.30;;;11.60;98.00;;;;;;5062493;28;20025;-63
2021/11/05 10:39:57;;;;;;;9.13;4.97;;;11.60;98.00;;;;;;5053648;28;20098;-63
2021/11/05 10:42:34;;;;;;;8.02;5.38;;;11.60;97.90;;;;;;5056065;28;20025;-63
2021/11/05 10:45:11;;;;;;;11.65;4.70;;;11.60;97.80;;;;;;5055375;28;20082;-64
2021/11/05 10:47:57;;;;;;;8.48;4.55;;;11.60;97.90;;;;;;5058634;28;20036;-65
2021/11/05 10:50:46;;;;;;;9.55;4.38;;;11.60;97.60;;;;;;5063518;28;20055;-65
2021/11/05 10:53:15;;;;;;;9.00;5.43;;;11.60;97.50;;;;;;5051445;28;20048;-63
2021/11/05 10:55:55;;;;;;;10.93;4.82;;;11.70;97.60;;;;;;5060487;28;20028;-64
2021/11/05 10:58:28;;;;;;;7.22;4.53;;;11.70;97.60;;;;;;5063133;28;20214;-63
2021/11/05 11:00:56;;;;;;;8.48;4.55;;;11.70;97.50;;;;;;5055592;28;20404;-64
2021/11/05 11:03:31;;;;;;;8.82;4.93;;;11.80;97.50;;;;;;5053288;28;20030;-64
2021/11/05 11:06:04;;;;;;;8.32;4.75;;;11.80;97.50;;;;;;5056441;28;20087;-64
2021/11/05 11:08:34;;;;;;;7.18;4.75;;;11.90;97.60;;;;;;5066526;28;20040;-64
2021/11/05 11:11:26;;;;;;;9.18;5.28;;;12.00;97.60;;;;;;5060780;28;20029;-63
2021/11/05 11:13:55;;;;;;;8.98;5.03;;;12.00;97.60;;;;;;5059001;28;20029;-64
2021/11/05 11:16:32;;;;;;;8.60;4.72;;;12.00;97.50;;;;;;5062401;28;20198;-64
2021/11/05 11:19:07;;;;;;;7.40;5.05;;;12.10;97.40;;;;;;5054578;28;20037;-65
2021/11/05 11:21:33;;;;;;;6.13;4.17;;;12.10;97.30;;;;;;5059938;28;20040;-65
2021/11/05 11:24:00;;;;;;;9.23;4.70;;;12.10;97.30;;;;;;5051388;28;20029;-65
2021/11/05 11:26:27;;;;;;;10.13;5.15;;;12.00;97.20;;;;;;5060384;28;20025;-65
2021/11/05 11:28:54;;;;;;;10.93;5.78;;;12.00;97.20;;;;;;5056597;28;20037;-64
2021/11/05 11:31:20;;;;;;;7.13;4.38;;;12.00;97.30;;;;;;5049761;28;20403;-64
2021/11/05 11:33:47;;;;;;;9.77;4.75;;;12.00;97.30;;;;;;5050033;28;20029;-63
2021/11/05 11:36:14;;;;;;;9.13;4.95;;;12.10;97.40;;;;;;5052088;28;20114;-65
2021/11/05 11:38:40;;;;;;;9.63;5.22;;;12.10;97.40;;;;;;5050765;28;20033;-64
2021/11/05 11:41:10;;;;;;;8.73;5.82;;;12.20;97.30;;;;;;5060906;28;20029;-64
2021/11/05 11:43:37;;;;;;;12.05;7.53;;;12.20;97.30;;;;;;5051485;28;20033;-64
2021/11/05 11:46:03;;;;;;;14.15;8.20;;;12.20;97.40;;;;;;5062252;28;20503;-64
2021/11/05 11:48:41;;;;;;;13.80;8.45;;;12.30;97.40;;;;;;5050632;28;20032;-64
2021/11/05 11:51:21;;;;;;;12.68;7.70;;;12.40;97.30;;;;;;5051849;28;20033;-63
2021/11/05 11:53:47;;;;;;;11.88;6.57;;;12.30;97.30;;;;;;5061278;28;20090;-63
2021/11/05 11:56:27;;;;;;;9.05;6.00;;;12.30;97.30;;;;;;5065052;28;20040;-64
2021/11/05 11:59:17;;;;;;;11.00;5.75;;;12.40;97.30;;;;;;5060216;28;20028;-64
2021/11/05 12:01:45;;;;;;;11.07;6.28;;;12.40;97.20;;;;;;5056933;28;20071;-64
2021/11/05 12:04:16;;;;;;;11.07;6.25;;;12.40;97.20;;;;;;5050361;28;20035;-65
2021/11/05 12:06:56;;;;;;;9.80;4.50;;;12.40;97.20;;;;;;5058489;28;20025;-65
2021/11/05 12:09:26;;;;;;;8.23;5.50;;;12.50;97.10;;;;;;5049402;28;20028;-65
2021/11/05 12:12:21;;;;;;;8.93;5.45;;;12.50;97.10;;;;;;5056637;28;20021;-64
2021/11/05 12:14:59;;;;;;;8.05;5.20;;;12.50;97.30;;;;;;5054662;28;20032;-65
2021/11/05 12:17:50;;;;;;;9.27;5.20;;;12.50;97.10;;;;;;5054707;28;20025;-65
2021/11/05 12:20:34;;;;;;;9.45;5.75;;;12.50;97.00;;;;;;5048037;28;20037;-64
2021/11/05 12:23:08;;;;;;;9.13;5.10;;;12.50;97.00;;;;;;5055142;28;20110;-65
2021/11/05 12:25:44;;;;;;;9.15;5.45;;;12.60;96.90;;;;;;5056850;28;20048;-65
2021/11/05 12:28:17;;;;;;;7.57;5.72;;;12.60;97.00;;;;;;5055376;28;20127;-65
2021/11/05 12:30:44;;;;;;;9.50;5.10;;;12.60;96.90;;;;;;5049649;28;20550;-65
2021/11/05 12:33:30;;;;;;;9.55;4.82;;;12.60;96.90;;;;;;5051644;28;20025;-65
2021/11/05 12:36:02;;;;;;;8.63;4.50;;;12.70;96.90;;;;;;5062167;28;20115;-65
2021/11/05 12:38:28;;;;;;;10.45;5.38;;;12.70;97.10;;;;;;5050244;28;20086;-64
2021/11/05 12:41:00;;;;;;;7.72;4.43;;;12.80;96.80;;;;;;5063450;28;20058;-65
2021/11/05 12:43:26;;;;;;;6.75;4.65;;;12.80;96.70;;;;;;5057492;28;20051;-64
2021/11/05 12:45:58;;;;;;;9.95;4.50;;;12.90;96.60;;;;;;5051273;28;20108;-65
2021/11/05 12:48:35;;;;;;;12.15;4.47;;;12.90;96.50;;;;;;5062138;28;20032;-64
2021/11/05 12:51:01;;;;;;;6.72;4.07;;;12.90;96.50;;;;;;5051474;28;20096;-65
2021/11/05 12:53:27;;;;;;;7.28;4.60;;;12.90;96.50;;;;;;5056267;28;20477;-65
2021/11/05 12:55:52;;;;;;;6.45;3.88;;;12.90;96.50;;;;;;5050961;28;20029;-65
2021/11/05 12:58:20;;;;;;;6.75;4.22;;;13.00;96.50;;;;;;5053495;28;20032;-65
2021/11/05 13:00:47;;;;;;;6.95;4.50;;;13.00;96.60;;;;;;5052227;28;20028;-65
2021/11/05 13:03:16;;;;;;;6.10;3.85;;;13.00;96.40;;;;;;5049482;28;20037;-65
2021/11/05 13:06:01;;;;;;;9.07;4.35;;;13.00;96.40;;;;;;5048113;28;20111;-65
2021/11/05 13:08:34;;;;;;;9.23;4.15;;;13.00;96.30;;;;;;5049900;28;20048;-65
2021/11/05 13:11:04;;;;;;;9.10;4.25;;;13.00;96.40;;;;;;5053607;28;20025;-66
2021/11/05 13:13:30;;;;;;;7.78;5.00;;;13.00;96.30;;;;;;5056669;28;20178;-65
2021/11/05 13:15:57;;;;;;;7.15;4.85;;;13.00;96.30;;;;;;5051793;28;20438;-65
2021/11/05 13:18:22;;;;;;;7.22;4.32;;;13.10;96.30;;;;;;5055974;28;20162;-64
2021/11/05 13:20:48;;;;;;;8.77;4.90;;;13.10;96.30;;;;;;5058879;28;20109;-65
2021/11/05 13:23:17;;;;;;;8.68;4.20;;;13.10;96.20;;;;;;5057396;28;20037;-64
2021/11/05 13:25:45;;;;;;;6.70;4.20;;;13.10;96.20;;;;;;5056413;28;20025;-65
2021/11/05 13:28:17;;;;;;;10.02;4.95;;;13.10;96.20;;;;;;5057180;28;20036;-65
2021/11/05 13:30:45;;;;;;;6.82;4.85;;;13.10;96.10;;;;;;5052907;28;20025;-65
2021/11/05 13:33:17;;;;;;;8.85;5.20;;;13.10;96.10;;;;;;5058194;28;20232;-65
2021/11/05 13:35:52;;;;;;;7.78;5.00;;;13.20;96.10;;;;;;5054276;28;20556;-65
2021/11/05 13:38:21;;;;;;;14.10;5.95;;;13.10;96.30;;;;;;5057795;28;20389;-65
2021/11/05 13:40:51;;;;;;;8.48;5.15;;;13.10;96.10;;;;;;5051824;28;20025;-65
2021/11/05 13:43:18;;;;;;;11.23;5.10;;;13.00;96.10;;;;;;5049919;28;20052;-65
2021/11/05 13:45:53;;;;;;;7.32;5.20;;;13.10;96.20;;;;;;5053279;28;20121;-65
2021/11/05 13:48:25;;;;;;;8.05;5.22;;;13.10;96.20;;;;;;5056225;28;20152;-64
2021/11/05 13:51:02;;;;;;;7.53;4.88;;;13.00;96.20;;;;;;5054172;28;20032;-64
2021/11/05 13:53:28;;;;;;;6.47;5.28;;;13.10;96.30;;;;;;5057169;28;20366;-64
2021/11/05 13:55:54;;;;;;;6.50;4.75;;;13.00;96.20;;;;;;5053762;28;20033;-65
2021/11/05 13:58:30;;;;;;;6.50;4.55;;;13.00;96.20;;;;;;5056141;28;20037;-65
2021/11/05 14:00:57;;;;;;;6.97;5.22;;;13.00;96.30;;;;;;5056379;28;20741;-64